createdAt,value
2022-12-15T00:00:59.600Z,94931.13
2022-12-15T00:03:26.120Z,94930.59
2022-12-15T00:05:52.616Z,94928.44
2022-12-15T00:08:18.952Z,94921.19
2022-12-15T00:10:45.316Z,94919.03
2022-12-15T00:13:11.646Z,94917.41
2022-12-15T00:15:38.045Z,94919.97
2022-12-15T00:18:04.530Z,94908.19
2022-12-15T00:20:30.914Z,94903.16
2022-12-15T00:22:57.306Z,94898.97
2022-12-15T00:25:23.640Z,94910.50
2022-12-15T00:27:49.976Z,94907.31
2022-12-15T00:30:16.318Z,94910.00
2022-12-15T00:32:42.648Z,94914.19
2022-12-15T00:35:09.015Z,94918.50
2022-12-15T00:37:35.400Z,94907.38
2022-12-15T00:40:01.778Z,94904.78
2022-12-15T00:42:28.120Z,94897.41
2022-12-15T00:44:54.493Z,94904.22
2022-12-15T00:47:20.823Z,94897.50
2022-12-15T00:49:47.159Z,94894.16
2022-12-15T00:52:13.525Z,94898.25
2022-12-15T00:54:39.901Z,94892.16
2022-12-15T00:57:06.305Z,94895.97
2022-12-15T00:59:32.686Z,94907.22
2022-12-15T01:01:59.221Z,94907.47
2022-12-15T01:04:25.663Z,94906.38
2022-12-15T01:06:52.061Z,94907.53
2022-12-15T01:09:18.395Z,94908.00
2022-12-15T01:11:44.765Z,94913.88
2022-12-15T01:14:11.151Z,94909.78
2022-12-15T01:16:37.626Z,94911.31
2022-12-15T01:19:04.054Z,94911.78
2022-12-15T01:21:30.380Z,94920.25
2022-12-15T01:23:56.739Z,94926.44
2022-12-15T01:26:23.071Z,94929.66
2022-12-15T01:28:49.447Z,94930.94
2022-12-15T01:31:15.922Z,94938.00
2022-12-15T01:33:42.338Z,94935.91
2022-12-15T01:36:08.713Z,94931.97
2022-12-15T01:38:35.047Z,94936.13
2022-12-15T01:41:01.370Z,94938.13
2022-12-15T01:43:27.794Z,94938.88
2022-12-15T01:45:54.248Z,94933.72
2022-12-15T01:48:20.613Z,94933.72
2022-12-15T01:50:46.990Z,94925.63
2022-12-15T01:53:13.368Z,94938.16
2022-12-15T01:55:39.750Z,94944.41
2022-12-15T01:58:06.133Z,94931.84
2022-12-15T02:00:32.600Z,94935.53
2022-12-15T02:02:59.132Z,94926.66
2022-12-15T02:05:25.593Z,94934.75
2022-12-15T02:07:51.929Z,94939.97
2022-12-15T02:10:18.271Z,94939.72
2022-12-15T02:12:44.600Z,94943.41
2022-12-15T02:15:10.977Z,94936.63
2022-12-15T02:17:37.319Z,94942.34
2022-12-15T02:20:03.668Z,94936.63
2022-12-15T02:22:29.995Z,94930.84
2022-12-15T02:24:56.373Z,94926.66
2022-12-15T02:27:22.764Z,94924.53
2022-12-15T02:29:49.116Z,94924.28
2022-12-15T02:32:15.445Z,94920.78
2022-12-15T02:34:41.775Z,94917.22
2022-12-15T02:37:08.099Z,94915.13
2022-12-15T02:39:34.423Z,94914.06
2022-12-15T02:42:00.759Z,94918.78
2022-12-15T02:44:27.129Z,94906.75
2022-12-15T02:46:53.511Z,94920.88
2022-12-15T02:49:19.850Z,94915.03
2022-12-15T02:51:46.179Z,94913.19
2022-12-15T02:54:12.522Z,94915.56
2022-12-15T02:56:38.861Z,94919.66
2022-12-15T02:59:05.245Z,94918.06
2022-12-15T03:01:31.755Z,94918.81
2022-12-15T03:03:58.210Z,94910.00
2022-12-15T03:06:24.581Z,94905.81
2022-12-15T03:08:50.962Z,94910.03
2022-12-15T03:11:17.294Z,94910.84
2022-12-15T03:13:43.657Z,94909.19
2022-12-15T03:16:10.057Z,94899.56
2022-12-15T03:18:36.428Z,94913.31
2022-12-15T03:21:02.748Z,94912.81
2022-12-15T03:23:29.620Z,94910.72
2022-12-15T03:25:56.327Z,94910.16
2022-12-15T03:28:22.705Z,94913.28
2022-12-15T03:30:50.306Z,94923.72
2022-12-15T03:33:17.058Z,94918.91
2022-12-15T03:35:43.382Z,94928.84
2022-12-15T03:38:09.750Z,94935.22
2022-12-15T03:40:36.139Z,94922.94
2022-12-15T03:43:02.519Z,94916.66
2022-12-15T03:45:28.855Z,94914.28
2022-12-15T03:47:55.188Z,94918.81
2022-12-15T03:50:21.515Z,94917.63
2022-12-15T03:52:47.891Z,94925.25
2022-12-15T03:55:14.265Z,94910.34
2022-12-15T03:57:40.609Z,94916.63
2022-12-15T04:00:06.968Z,94907.25
2022-12-15T04:02:33.462Z,94910.97
2022-12-15T04:04:59.938Z,94907.28
2022-12-15T04:07:26.320Z,94906.28
2022-12-15T04:09:52.714Z,94908.38
2022-12-15T04:12:19.048Z,94903.63
2022-12-15T04:14:45.421Z,94898.91
2022-12-15T04:17:11.844Z,94889.50
2022-12-15T04:19:38.211Z,94894.97
2022-12-15T04:22:04.587Z,94894.66
2022-12-15T04:24:30.967Z,94890.22
2022-12-15T04:26:57.300Z,94895.72
2022-12-15T04:29:23.674Z,94891.34
2022-12-15T04:31:50.016Z,94889.34
2022-12-15T04:34:16.351Z,94886.19
2022-12-15T04:36:42.676Z,94882.13
2022-12-15T04:39:09.008Z,94896.66
2022-12-15T04:41:35.348Z,94888.81
2022-12-15T04:44:01.676Z,94889.47
2022-12-15T04:46:28.090Z,94882.72
2022-12-15T04:48:54.440Z,94885.84
2022-12-15T04:51:22.735Z,94884.75
2022-12-15T04:53:50.296Z,94879.00
2022-12-15T04:56:18.675Z,94874.84
2022-12-15T04:58:45.247Z,94875.84
2022-12-15T05:01:11.639Z,94879.53
2022-12-15T05:03:38.042Z,94872.75
2022-12-15T05:06:04.379Z,94871.19
2022-12-15T05:08:30.703Z,94876.16
2022-12-15T05:10:57.028Z,94868.03
2022-12-15T05:13:23.397Z,94870.66
2022-12-15T05:15:49.943Z,94861.25
2022-12-15T05:18:16.339Z,94857.03
2022-12-15T05:20:42.875Z,94857.53
2022-12-15T05:23:09.204Z,94853.88
2022-12-15T05:25:35.571Z,94861.19
2022-12-15T05:28:01.955Z,94858.34
2022-12-15T05:30:28.342Z,94848.19
2022-12-15T05:32:54.715Z,94849.72
2022-12-15T05:35:21.108Z,94856.56
2022-12-15T05:37:47.557Z,94856.50
2022-12-15T05:40:13.896Z,94859.13
2022-12-15T05:42:40.291Z,94862.25
2022-12-15T05:45:06.694Z,94858.06
2022-12-15T05:47:33.063Z,94851.78
2022-12-15T05:49:59.438Z,94854.88
2022-12-15T05:52:25.781Z,94858.03
2022-12-15T05:54:52.107Z,94848.09
2022-12-15T05:57:18.481Z,94854.91
2022-12-15T05:59:44.878Z,94849.97
2022-12-15T06:02:11.305Z,94858.88
2022-12-15T06:04:37.800Z,94861.75
2022-12-15T06:07:04.254Z,94854.97
2022-12-15T06:09:30.597Z,94858.13
2022-12-15T06:11:56.932Z,94850.53
2022-12-15T06:14:23.303Z,94841.13
2022-12-15T06:16:50.259Z,94836.41
2022-12-15T06:19:17.606Z,94838.75
2022-12-15T06:21:44.007Z,94850.00
2022-12-15T06:24:10.403Z,94848.19
2022-12-15T06:26:36.792Z,94852.88
2022-12-15T06:29:03.177Z,94860.75
2022-12-15T06:31:29.553Z,94869.63
2022-12-15T06:34:01.429Z,94862.53
2022-12-15T06:36:28.755Z,94866.47
2022-12-15T06:38:55.153Z,94860.19
2022-12-15T06:41:21.509Z,94872.22
2022-12-15T06:43:47.836Z,94886.25
2022-12-15T06:46:14.232Z,94893.00
2022-12-15T06:48:40.671Z,94893.81
2022-12-15T06:51:10.805Z,94896.25
2022-12-15T06:53:41.450Z,94894.63
2022-12-15T06:56:07.794Z,94891.03
2022-12-15T06:58:34.152Z,94905.19
2022-12-15T07:01:00.499Z,94910.16
2022-12-15T07:03:27.069Z,94911.19
2022-12-15T07:05:53.524Z,94916.13
2022-12-15T07:08:19.862Z,94923.94
2022-12-15T07:10:46.184Z,94936.84
2022-12-15T07:13:12.536Z,94943.22
2022-12-15T07:15:38.871Z,94942.69
2022-12-15T07:18:05.245Z,94942.88
2022-12-15T07:20:31.612Z,94949.72
2022-12-15T07:22:58.015Z,94948.63
2022-12-15T07:25:24.342Z,94945.94
2022-12-15T07:27:50.881Z,94936.00
2022-12-15T07:30:17.265Z,94937.50
2022-12-15T07:32:43.601Z,94939.31
2022-12-15T07:35:16.349Z,94932.91
2022-12-15T07:37:42.728Z,94932.31
2022-12-15T07:40:09.105Z,94927.03
2022-12-15T07:42:35.459Z,94932.34
2022-12-15T07:45:01.797Z,94932.41
2022-12-15T07:47:28.136Z,94916.97
2022-12-15T07:49:54.470Z,94915.16
2022-12-15T07:52:20.809Z,94900.47
2022-12-15T07:54:47.140Z,94896.06
2022-12-15T07:57:13.513Z,94901.03
2022-12-15T07:59:39.851Z,94924.03
2022-12-15T08:02:06.353Z,94917.22
2022-12-15T08:04:32.946Z,94908.34
2022-12-15T08:06:59.332Z,94923.81
2022-12-15T08:09:25.717Z,94921.69
2022-12-15T08:11:52.072Z,94923.25
2022-12-15T08:14:19.027Z,94947.59
2022-12-15T08:16:45.707Z,94945.78
2022-12-15T08:19:12.147Z,94950.75
2022-12-15T08:21:38.496Z,94965.97
2022-12-15T08:24:04.828Z,94979.03
2022-12-15T08:26:31.723Z,94974.06
2022-12-15T08:29:11.876Z,94975.88
2022-12-15T08:31:44.146Z,94970.63
2022-12-15T08:34:10.517Z,94980.09
2022-12-15T08:36:36.856Z,94974.31
2022-12-15T08:39:03.222Z,94966.97
2022-12-15T08:41:29.619Z,94966.97
2022-12-15T08:43:56.005Z,94966.97
2022-12-15T08:46:22.555Z,94951.78
2022-12-15T08:48:48.963Z,94962.75
2022-12-15T08:51:15.299Z,94964.38
2022-12-15T08:53:41.734Z,94956.97
2022-12-15T08:56:08.146Z,94950.94
2022-12-15T08:58:34.499Z,94936.53
2022-12-15T09:01:00.908Z,94936.44
2022-12-15T09:03:27.401Z,94931.25
2022-12-15T09:05:53.835Z,94947.03
2022-12-15T09:08:20.175Z,94956.56
2022-12-15T09:10:46.510Z,94958.38
2022-12-15T09:13:18.859Z,94963.13
2022-12-15T09:16:08.904Z,94967.84
2022-12-15T09:18:31.526Z,94959.22
2022-12-15T09:20:57.914Z,94963.97
2022-12-15T09:23:24.300Z,94950.81
2022-12-15T09:25:50.684Z,94945.53
2022-12-15T09:28:17.043Z,94941.97
2022-12-15T09:30:43.515Z,94947.84
2022-12-15T09:33:09.925Z,94944.84
2022-12-15T09:35:36.283Z,94946.88
2022-12-15T09:38:02.656Z,94936.84
2022-12-15T09:40:29.008Z,94951.53
2022-12-15T09:43:25.620Z,94947.63
2022-12-15T09:45:41.770Z,94948.38
2022-12-15T09:48:08.186Z,94943.97
2022-12-15T09:50:34.561Z,94944.25
2022-12-15T09:53:00.938Z,94933.81
2022-12-15T09:55:27.362Z,94944.25
2022-12-15T09:57:53.711Z,94941.09
2022-12-15T10:00:20.643Z,94940.94
2022-12-15T10:02:47.136Z,94947.41
2022-12-15T10:05:16.234Z,94945.88
2022-12-15T10:07:42.633Z,94943.72
2022-12-15T10:10:09.030Z,94936.44
2022-12-15T10:12:35.368Z,94939.72
2022-12-15T10:15:01.736Z,94927.09
2022-12-15T10:17:28.094Z,94938.41
2022-12-15T10:19:54.452Z,94926.84
2022-12-15T10:22:20.786Z,94913.03
2022-12-15T10:27:33.499Z,94895.16
2022-12-15T10:29:59.919Z,94897.06
2022-12-15T10:32:26.364Z,94893.13
2022-12-15T10:34:52.798Z,94886.59
2022-12-15T10:37:19.289Z,94889.44
2022-12-15T10:39:45.670Z,94881.03
2022-12-15T10:42:16.643Z,94880.94
2022-12-15T10:44:43.050Z,94880.19
2022-12-15T10:47:09.450Z,94870.03
2022-12-15T10:49:35.845Z,94855.25
2022-12-15T10:52:02.178Z,94837.19
2022-12-15T10:54:28.565Z,94835.13
2022-12-15T10:56:54.950Z,94835.75
2022-12-15T10:59:21.344Z,94841.53
2022-12-15T11:01:47.811Z,94835.91
2022-12-15T11:04:17.478Z,94833.91
2022-12-15T11:06:43.847Z,94823.97
2022-12-15T11:09:11.526Z,94821.88
2022-12-15T11:11:37.933Z,94823.16
2022-12-15T11:14:04.339Z,94824.50
2022-12-15T11:16:30.690Z,94824.50
2022-12-15T11:18:57.070Z,94812.91
2022-12-15T11:21:23.451Z,94806.66
2022-12-15T11:23:50.352Z,94798.41
2022-12-15T11:26:16.846Z,94786.41
2022-12-15T11:28:43.241Z,94787.22
2022-12-15T11:31:09.619Z,94782.28
2022-12-15T11:33:36.307Z,94774.91
2022-12-15T11:36:02.842Z,94769.22
2022-12-15T11:38:29.257Z,94754.03
2022-12-15T11:40:55.665Z,94761.75
2022-12-15T11:43:22.049Z,94761.63
2022-12-15T11:45:48.416Z,94758.50
2022-12-15T11:48:15.363Z,94770.44
2022-12-15T11:50:41.739Z,94765.63
2022-12-15T11:53:08.128Z,94759.47
2022-12-15T11:55:40.855Z,94741.56
2022-12-15T11:58:07.672Z,94746.16
2022-12-15T12:00:34.041Z,94721.22
2022-12-15T12:03:00.452Z,94718.41
2022-12-15T12:05:26.913Z,94709.31
2022-12-15T12:07:53.449Z,94704.28
2022-12-15T12:10:19.869Z,94714.63
2022-12-15T12:12:46.245Z,94718.25
2022-12-15T12:15:16.885Z,94722.09
2022-12-15T12:17:43.243Z,94706.53
2022-12-15T12:20:11.463Z,94701.34
2022-12-15T12:22:38.078Z,94690.44
2022-12-15T12:25:04.502Z,94691.13
2022-12-15T12:27:30.849Z,94683.47
2022-12-15T12:29:57.189Z,94680.88
2022-12-15T12:32:23.539Z,94685.22
2022-12-15T12:34:51.129Z,94685.69
2022-12-15T12:37:17.715Z,94680.28
2022-12-15T12:39:44.051Z,94682.63
2022-12-15T12:42:11.627Z,94692.84
2022-12-15T12:44:37.960Z,94683.19
2022-12-15T12:47:04.286Z,94674.72
2022-12-15T12:49:30.640Z,94677.44
2022-12-15T12:51:57.001Z,94683.72
2022-12-15T12:54:23.370Z,94680.81
2022-12-15T12:59:36.159Z,94675.03
2022-12-15T13:02:02.622Z,94673.78
2022-12-15T13:04:29.057Z,94673.41
2022-12-15T13:06:55.400Z,94670.78
2022-12-15T13:09:21.740Z,94659.91
2022-12-15T13:11:49.124Z,94657.28
2022-12-15T13:14:21.056Z,94660.44
2022-12-15T13:17:17.206Z,94645.69
2022-12-15T13:19:36.893Z,94641.03
2022-12-15T13:22:03.322Z,94640.34
2022-12-15T13:24:29.663Z,94640.31
2022-12-15T13:26:56.045Z,94642.41
2022-12-15T13:29:22.385Z,94643.94
2022-12-15T13:31:49.209Z,94646.16
2022-12-15T13:34:15.689Z,94651.84
2022-12-15T13:36:42.035Z,94643.56
2022-12-15T13:39:08.377Z,94646.97
2022-12-15T13:41:34.781Z,94639.84
2022-12-15T13:44:01.170Z,94620.50
2022-12-15T13:46:27.689Z,94630.53
2022-12-15T13:48:54.190Z,94625.41
2022-12-15T13:51:20.638Z,94625.19
2022-12-15T13:53:51.679Z,94628.84
2022-12-15T13:56:18.327Z,94631.75
2022-12-15T13:58:44.700Z,94633.34
2022-12-15T14:01:11.923Z,94624.44
2022-12-15T14:03:38.611Z,94608.50
2022-12-15T14:06:05.274Z,94606.69
2022-12-15T14:08:31.616Z,94607.44
2022-12-15T14:10:58.025Z,94606.38
2022-12-15T14:13:24.418Z,94615.53
2022-12-15T14:15:51.076Z,94610.38
2022-12-15T14:18:17.437Z,94618.72
2022-12-15T14:20:43.772Z,94612.47
2022-12-15T14:23:10.105Z,94608.81
2022-12-15T14:25:36.563Z,94607.72
2022-12-15T14:28:05.459Z,94607.66
2022-12-15T14:30:34.139Z,94601.28
2022-12-15T14:33:00.522Z,94602.78
2022-12-15T14:35:26.863Z,94619.06
2022-12-15T14:37:53.210Z,94617.59
2022-12-15T14:40:24.989Z,94621.75
2022-12-15T14:42:54.723Z,94633.81
2022-12-15T14:45:21.059Z,94634.09
2022-12-15T14:48:05.792Z,94637.53
2022-12-15T14:50:33.760Z,94639.63
2022-12-15T14:53:00.095Z,94644.28
2022-12-15T14:55:26.486Z,94649.50
2022-12-15T14:57:52.909Z,94640.66
2022-12-15T15:00:19.365Z,94658.94
2022-12-15T15:02:45.815Z,94652.34
2022-12-15T15:03:09.323Z,94673.50
2022-12-15T15:05:12.282Z,94655.78
2022-12-15T15:07:38.641Z,94657.13
2022-12-15T15:10:04.992Z,94665.16
2022-12-15T15:12:31.330Z,94670.94
2022-12-15T15:14:57.701Z,94671.47
2022-12-15T15:17:24.048Z,94666.22
2022-12-15T15:19:50.398Z,94661.47
2022-12-15T15:22:16.738Z,94656.22
2022-12-15T15:24:43.086Z,94638.72
2022-12-15T15:27:09.476Z,94636.38
2022-12-15T15:29:35.899Z,94635.94
2022-12-15T15:32:02.303Z,94635.78
2022-12-15T15:34:28.698Z,94627.56
2022-12-15T15:36:55.083Z,94619.50
2022-12-15T15:39:21.441Z,94620.81
2022-12-15T15:41:47.815Z,94607.00
2022-12-15T15:44:14.166Z,94617.16
2022-12-15T15:46:40.579Z,94609.06
2022-12-15T15:49:06.961Z,94601.19
2022-12-15T15:51:33.333Z,94603.13
2022-12-15T15:53:59.710Z,94597.19
2022-12-15T15:56:26.063Z,94589.44
2022-12-15T15:58:52.397Z,94578.97
2022-12-15T16:01:18.878Z,94577.31
2022-12-15T16:03:45.427Z,94584.13
2022-12-15T16:06:11.839Z,94579.94
2022-12-15T16:08:38.190Z,94582.13
2022-12-15T16:11:04.546Z,94593.56
2022-12-15T16:13:30.962Z,94591.88
2022-12-15T16:15:57.475Z,94597.47
2022-12-15T16:18:23.891Z,94592.47
2022-12-15T16:20:50.271Z,94616.41
2022-12-15T16:23:16.645Z,94612.38
2022-12-15T16:25:50.307Z,94615.91
2022-12-15T16:28:17.241Z,94624.69
2022-12-15T16:30:43.635Z,94617.47
2022-12-15T16:33:09.997Z,94616.97
2022-12-15T16:35:36.383Z,94602.44
2022-12-15T16:38:02.733Z,94611.69
2022-12-15T16:40:29.106Z,94608.75
2022-12-15T16:42:55.496Z,94609.44
2022-12-15T16:45:21.855Z,94599.53
2022-12-15T16:47:48.196Z,94600.66
2022-12-15T16:50:14.576Z,94597.47
2022-12-15T16:52:40.952Z,94610.03
2022-12-15T16:55:07.331Z,94600.81
2022-12-15T16:57:33.656Z,94595.16
2022-12-15T16:59:59.990Z,94608.72
2022-12-15T17:02:29.751Z,94606.34
2022-12-15T17:04:56.306Z,94603.84
2022-12-15T17:07:22.645Z,94602.78
2022-12-15T17:09:49.024Z,94609.06
2022-12-15T17:12:15.369Z,94599.25
2022-12-15T17:14:41.701Z,94611.78
2022-12-15T17:17:08.031Z,94599.84
2022-12-15T17:19:34.429Z,94599.38
2022-12-15T17:22:00.807Z,94591.06
2022-12-15T17:24:27.188Z,94597.91
2022-12-15T17:26:53.529Z,94600.53
2022-12-15T17:29:19.858Z,94602.31
2022-12-15T17:31:46.333Z,94601.50
2022-12-15T17:34:12.808Z,94593.44
2022-12-15T17:36:39.189Z,94593.31
2022-12-15T17:39:05.528Z,94592.03
2022-12-15T17:44:35.549Z,94597.88
2022-12-15T17:47:03.091Z,94599.47
2022-12-15T17:49:35.087Z,94601.56
2022-12-15T17:52:02.623Z,94607.31
2022-12-15T17:54:28.982Z,94604.88
2022-12-15T17:56:55.315Z,94614.31
2022-12-15T17:59:21.681Z,94609.94
2022-12-15T18:01:48.238Z,94605.56
2022-12-15T18:04:14.755Z,94609.19
2022-12-15T18:06:41.146Z,94605.91
2022-12-15T18:09:07.483Z,94605.34
2022-12-15T18:11:33.855Z,94608.97
2022-12-15T18:14:00.240Z,94610.69
2022-12-15T18:16:26.666Z,94613.47
2022-12-15T18:18:53.068Z,94610.63
2022-12-15T18:21:19.451Z,94614.78
2022-12-15T18:23:45.838Z,94609.50
2022-12-15T18:26:12.179Z,94613.56
2022-12-15T18:28:38.516Z,94613.38
2022-12-15T18:31:04.916Z,94618.47
2022-12-15T18:33:31.479Z,94613.63
2022-12-15T18:35:58.117Z,94615.19
2022-12-15T18:38:24.479Z,94610.47
2022-12-15T18:40:50.858Z,94623.13
2022-12-15T18:43:17.247Z,94610.56
2022-12-15T18:45:43.636Z,94611.00
2022-12-15T18:48:09.983Z,94606.69
2022-12-15T18:50:36.386Z,94620.16
2022-12-15T18:53:02.779Z,94608.44
2022-12-15T18:55:29.177Z,94605.28
2022-12-15T18:57:55.581Z,94625.06
2022-12-15T19:00:23.053Z,94629.16
2022-12-15T19:02:49.487Z,94623.66
2022-12-15T19:05:15.940Z,94618.31
2022-12-15T19:07:42.317Z,94631.22
2022-12-15T19:10:08.697Z,94634.22
2022-12-15T19:12:35.030Z,94637.50
2022-12-15T19:15:01.349Z,94623.97
2022-12-15T19:17:27.739Z,94627.56
2022-12-15T19:19:54.119Z,94623.03
2022-12-15T19:22:20.508Z,94621.16
2022-12-15T19:24:46.852Z,94632.63
2022-12-15T19:27:13.220Z,94626.75
2022-12-15T19:29:39.598Z,94628.31
2022-12-15T19:32:05.948Z,94627.72
2022-12-15T19:34:32.276Z,94627.91
2022-12-15T19:36:58.596Z,94625.03
2022-12-15T19:39:24.920Z,94621.72
2022-12-15T19:41:51.247Z,94625.72
2022-12-15T19:44:17.607Z,94625.47
2022-12-15T19:46:43.984Z,94628.69
2022-12-15T19:49:10.366Z,94626.09
2022-12-15T19:51:36.710Z,94630.91
2022-12-15T19:54:03.072Z,94630.91
2022-12-15T19:56:29.410Z,94641.13
2022-12-15T19:58:55.793Z,94628.69
2022-12-15T20:01:22.453Z,94634.81
2022-12-15T20:03:48.955Z,94644.97
2022-12-15T20:06:15.358Z,94630.75
2022-12-15T20:08:41.693Z,94633.41
2022-12-15T20:11:08.023Z,94628.22
2022-12-15T20:13:35.043Z,94634.25
2022-12-15T20:16:01.997Z,94635.47
2022-12-15T20:18:28.386Z,94643.63
2022-12-15T20:20:54.791Z,94639.78
2022-12-15T20:23:21.157Z,94642.34
2022-12-15T20:25:47.538Z,94646.94
2022-12-15T20:28:13.924Z,94645.03
2022-12-15T20:30:40.301Z,94649.31
2022-12-15T20:33:06.667Z,94650.78
2022-12-15T20:35:33.034Z,94655.72
2022-12-15T20:37:59.461Z,94659.19
2022-12-15T20:40:25.872Z,94664.06
2022-12-15T20:42:52.264Z,94673.66
2022-12-15T20:45:18.627Z,94673.50
2022-12-15T20:47:45.136Z,94671.31
2022-12-15T20:50:11.510Z,94670.66
2022-12-15T20:52:37.911Z,94674.63
2022-12-15T20:55:04.254Z,94682.75
2022-12-15T20:57:30.605Z,94683.84
2022-12-15T20:59:56.948Z,94687.06
2022-12-15T21:02:23.573Z,94688.88
2022-12-15T21:04:50.072Z,94668.06
2022-12-15T21:07:16.501Z,94667.31
2022-12-15T21:09:42.853Z,94676.41
2022-12-15T21:12:09.495Z,94672.94
2022-12-15T21:14:35.865Z,94673.78
2022-12-15T21:17:02.275Z,94679.53
2022-12-15T21:19:28.963Z,94676.06
2022-12-15T21:21:55.980Z,94683.91
2022-12-15T21:24:22.393Z,94692.03
2022-12-15T21:26:48.771Z,94695.13
2022-12-15T21:29:15.114Z,94696.84
2022-12-15T21:31:41.451Z,94693.84
2022-12-15T21:34:07.786Z,94701.16
2022-12-15T21:36:34.633Z,94693.22
2022-12-15T21:39:01.017Z,94695.13
2022-12-15T21:41:27.404Z,94698.56
2022-12-15T21:43:54.952Z,94697.25
2022-12-15T21:46:26.260Z,94697.34
2022-12-15T21:48:54.155Z,94705.38
2022-12-15T21:51:21.014Z,94703.88
2022-12-15T21:53:47.376Z,94712.97
2022-12-15T21:56:13.715Z,94713.50
2022-12-15T21:58:40.085Z,94720.97
2022-12-15T22:01:06.459Z,94719.31
2022-12-15T22:03:32.903Z,94725.03
2022-12-15T22:05:59.252Z,94727.81
2022-12-15T22:08:25.580Z,94738.44
2022-12-15T22:10:52.148Z,94729.03
2022-12-15T22:13:18.515Z,94729.50
2022-12-15T22:15:44.901Z,94724.38
2022-12-15T22:18:11.312Z,94733.41
2022-12-15T22:20:37.702Z,94739.41
2022-12-15T22:23:04.055Z,94734.81
2022-12-15T22:25:30.395Z,94733.66
2022-12-15T22:27:56.741Z,94730.06
2022-12-15T22:30:23.112Z,94733.84
2022-12-15T22:32:49.490Z,94735.38
2022-12-15T22:35:15.823Z,94734.28
2022-12-15T22:37:42.197Z,94742.94
2022-12-15T22:40:08.555Z,94744.38
2022-12-15T22:42:34.894Z,94753.06
2022-12-15T22:45:02.621Z,94748.03
2022-12-15T22:47:28.954Z,94750.94
2022-12-15T22:49:55.324Z,94754.72
2022-12-15T22:52:21.658Z,94744.41
2022-12-15T22:54:48.076Z,94751.41
2022-12-15T22:57:14.613Z,94742.84
2022-12-15T22:59:41.001Z,94743.31
2022-12-15T23:02:07.416Z,94745.16
2022-12-15T23:04:34.453Z,94743.28
2022-12-15T23:07:00.818Z,94739.44
2022-12-15T23:09:27.202Z,94737.84
2022-12-15T23:11:53.559Z,94731.75
2022-12-15T23:14:21.405Z,94738.03
2022-12-15T23:16:47.747Z,94736.19
2022-12-15T23:19:14.142Z,94743.44
2022-12-15T23:21:40.526Z,94744.53
2022-12-15T23:24:06.895Z,94755.28
2022-12-15T23:26:33.255Z,94764.06
2022-12-15T23:28:59.591Z,94766.09
2022-12-15T23:31:25.978Z,94759.75
2022-12-15T23:33:52.522Z,94756.19
2022-12-15T23:36:18.953Z,94759.81
2022-12-15T23:38:45.310Z,94760.13
2022-12-15T23:41:11.684Z,94763.28
2022-12-15T23:43:38.068Z,94752.81
2022-12-15T23:46:04.511Z,94761.13
2022-12-15T23:48:30.912Z,94760.59
2022-12-15T23:50:57.244Z,94775.06
2022-12-15T23:53:23.618Z,94774.66
2022-12-15T23:55:49.949Z,94777.25
2022-12-15T23:58:18.129Z,94784.47
